BAW902N EGLL-EDDF
Flight info
| Callsign | BAW902N |
|---|---|
| Flight time | N/A |
| Altitude | 35000 |
| Route | DET L6 DVR UL9 KONAN UL607 SPI T180 NIVNU T847 IMCOM IMCOM1A |
| Aircraft | B772/H-SDE2E3FGHIJ5LORVWXY/LB1D1 |
Departure
| Time | 2026-05-06 15:15 |
|---|---|
| Airport | London Heathrow Airport (EGLL) |
Arrival
| Time | N/A |
|---|---|
| Airport | Frankfurt Main Airport (EDDF) |
| Time | Latitude | Longitude | Altitude | Speed | Heading |
|---|---|---|---|---|---|
| 2026-05-06 14:28 | 51.47048 | -0.48237 | 93 ft | 0 kts | 90° |
| 2026-05-06 15:06 | 51.47048 | -0.48245 | 91 ft | 3 kts | 90° |
| 2026-05-06 15:06 | 51.47048 | -0.48287 | 91 ft | 4 kts | 90° |
| 2026-05-06 15:06 | 51.47049 | -0.48321 | 92 ft | 4 kts | 107° |
| 2026-05-06 15:06 | 51.47062 | -0.48352 | 92 ft | 4 kts | 161° |
| 2026-05-06 15:07 | 51.47086 | -0.48356 | 92 ft | 4 kts | 180° |
| 2026-05-06 15:07 | 51.47103 | -0.48357 | 92 ft | 0 kts | 180° |
| 2026-05-06 15:09 | 51.47074 | -0.48356 | 92 ft | 9 kts | 180° |
| 2026-05-06 15:09 | 51.47011 | -0.48356 | 94 ft | 9 kts | 180° |
| 2026-05-06 15:09 | 51.46947 | -0.48355 | 94 ft | 9 kts | 180° |
| 2026-05-06 15:09 | 51.46884 | -0.48355 | 94 ft | 9 kts | 180° |
| 2026-05-06 15:10 | 51.46841 | -0.48355 | 92 ft | 0 kts | 180° |
| 2026-05-06 15:12 | 51.46800 | -0.48355 | 91 ft | 10 kts | 180° |
| 2026-05-06 15:12 | 51.46744 | -0.48409 | 95 ft | 10 kts | 249° |
| 2026-05-06 15:13 | 51.46741 | -0.48522 | 91 ft | 10 kts | 270° |
| 2026-05-06 15:13 | 51.46742 | -0.48637 | 91 ft | 10 kts | 270° |
| 2026-05-06 15:13 | 51.46732 | -0.48710 | 95 ft | 10 kts | 237° |
| 2026-05-06 15:13 | 51.46667 | -0.48747 | 93 ft | 10 kts | 184° |
| 2026-05-06 15:14 | 51.46591 | -0.48771 | 92 ft | 18 kts | 194° |
| 2026-05-06 15:14 | 51.46492 | -0.48742 | 93 ft | 14 kts | 133° |
| 2026-05-06 15:14 | 51.46479 | -0.48553 | 91 ft | 32 kts | 89° |
| 2026-05-06 15:14 | 51.46482 | -0.47769 | 94 ft | 110 kts | 90° |
| 2026-05-06 15:15 | 51.46475 | -0.46197 | 231 ft | 160 kts | 92° |
| 2026-05-06 15:15 | 51.46436 | -0.44435 | 1092 ft | 159 kts | 87° |
| 2026-05-06 15:15 | 51.46441 | -0.42572 | 1628 ft | 177 kts | 84° |
| 2026-05-06 15:15 | 51.46186 | -0.40490 | 1810 ft | 211 kts | 121° |
| 2026-05-06 15:16 | 51.45114 | -0.38674 | 2007 ft | 234 kts | 130° |
| 2026-05-06 15:16 | 51.44325 | -0.36318 | 2218 ft | 249 kts | 100° |
| 2026-05-06 15:16 | 51.43900 | -0.33580 | 2845 ft | 257 kts | 104° |
| 2026-05-06 15:16 | 51.43339 | -0.30881 | 3665 ft | 262 kts | 107° |
| 2026-05-06 15:17 | 51.42730 | -0.28120 | 4546 ft | 262 kts | 105° |
| 2026-05-06 15:17 | 51.42275 | -0.25266 | 5271 ft | 267 kts | 98° |
| 2026-05-06 15:17 | 51.41906 | -0.22319 | 6064 ft | 272 kts | 98° |
| 2026-05-06 15:17 | 51.41521 | -0.19329 | 6876 ft | 275 kts | 99° |
| 2026-05-06 15:18 | 51.41117 | -0.16294 | 7564 ft | 281 kts | 100° |
| 2026-05-06 15:18 | 51.40700 | -0.13206 | 8250 ft | 287 kts | 100° |
| 2026-05-06 15:18 | 51.40268 | -0.10065 | 8973 ft | 292 kts | 100° |
| 2026-05-06 15:18 | 51.39826 | -0.06864 | 9705 ft | 295 kts | 101° |
| 2026-05-06 15:19 | 51.39378 | -0.03619 | 10334 ft | 303 kts | 101° |
| 2026-05-06 15:19 | 51.38904 | -0.00194 | 10539 ft | 329 kts | 101° |
| 2026-05-06 15:19 | 51.38396 | 0.03463 | 10910 ft | 349 kts | 101° |
| 2026-05-06 15:19 | 51.37858 | 0.07310 | 11760 ft | 354 kts | 101° |
| 2026-05-06 15:20 | 51.37312 | 0.11202 | 12739 ft | 361 kts | 102° |
| 2026-05-06 15:20 | 51.36754 | 0.15177 | 13708 ft | 369 kts | 102° |
| 2026-05-06 15:20 | 51.36184 | 0.19227 | 14615 ft | 376 kts | 102° |
| 2026-05-06 15:20 | 51.35602 | 0.23347 | 15503 ft | 382 kts | 102° |
| 2026-05-06 15:21 | 51.35011 | 0.27517 | 16519 ft | 386 kts | 102° |
| 2026-05-06 15:21 | 51.34419 | 0.31686 | 17393 ft | 393 kts | 103° |
| 2026-05-06 15:21 | 51.33808 | 0.35986 | 18356 ft | 397 kts | 103° |
| 2026-05-06 15:21 | 51.33190 | 0.40320 | 19268 ft | 400 kts | 103° |
| 2026-05-06 15:22 | 51.32565 | 0.44688 | 20114 ft | 406 kts | 103° |
| 2026-05-06 15:22 | 51.31928 | 0.49129 | 20911 ft | 412 kts | 103° |
| 2026-05-06 15:22 | 51.31280 | 0.53619 | 21810 ft | 416 kts | 103° |
| 2026-05-06 15:22 | 51.30625 | 0.58149 | 22666 ft | 421 kts | 103° |
| 2026-05-06 15:23 | 51.29919 | 0.62742 | 23430 ft | 427 kts | 105° |
| 2026-05-06 15:23 | 51.29114 | 0.67281 | 24131 ft | 431 kts | 107° |
| 2026-05-06 15:23 | 51.28249 | 0.71895 | 24894 ft | 433 kts | 108° |
| 2026-05-06 15:23 | 51.27372 | 0.76526 | 25563 ft | 438 kts | 108° |
| 2026-05-06 15:24 | 51.26492 | 0.81203 | 26183 ft | 442 kts | 107° |
| 2026-05-06 15:24 | 51.25611 | 0.85930 | 26857 ft | 445 kts | 107° |
| 2026-05-06 15:24 | 51.24728 | 0.90696 | 27473 ft | 449 kts | 107° |